Time;durP1;ratioP1;P1;durP2;ratioP2;P2;SDS_P1;SDS_P2;PMS_P1;PMS_P2;Temp;Humidity;BMP_temperature;BMP_pressure;BME280_temperature;BME280_humidity;BME280_pressure;Samples;Min_cycle;Max_cycle;Signal;HPM_P1;HPM_P2
2022/06/06 00:01:50;;;;;;;6.50;5.15;;;;;;;16.45;65.51;99659.94;1750854;82;21096;-41
2022/06/06 00:04:18;;;;;;;5.67;4.97;;;;;;;16.40;65.46;99651.33;1751365;82;21107;-42
2022/06/06 00:06:45;;;;;;;5.85;5.22;;;;;;;16.43;65.32;99660.91;1751083;82;21487;-42
2022/06/06 00:09:14;;;;;;;7.20;5.35;;;;;;;16.41;65.34;99664.61;1750791;82;21032;-42
2022/06/06 00:11:41;;;;;;;7.17;4.67;;;;;;;16.37;65.33;99667.14;1750688;82;21024;-42
2022/06/06 00:14:11;;;;;;;5.85;4.78;;;;;;;16.33;65.45;99663.63;1750003;82;21571;-42
2022/06/06 00:16:39;;;;;;;;;;;;;;;16.34;65.53;99660.52;1745635;82;21747;-42
2022/06/06 00:19:07;;;;;;;6.15;5.55;;;;;;;16.36;65.58;99664.99;1742834;82;20178;-42
2022/06/06 00:21:35;;;;;;;8.03;5.45;;;;;;;16.25;65.98;99663.44;1742963;82;21571;-42
2022/06/06 00:24:03;;;;;;;7.72;4.97;;;;;;;16.25;65.87;99660.13;1742930;82;21029;-42
2022/06/06 00:27:24;;;;;;;6.25;5.35;;;;;;;16.27;65.96;99655.61;1773859;79;22668;-42
2022/06/06 00:29:53;;;;;;;5.58;5.08;;;;;;;16.16;66.21;99652.11;1746213;82;21003;-42
2022/06/06 00:35:08;;;;;;;7.78;5.12;;;;;;;16.16;66.52;99651.52;1746188;82;20968;-42
2022/06/06 00:37:38;;;;;;;8.65;5.45;;;;;;;16.16;66.86;99652.89;1746151;82;21003;-42
2022/06/06 00:40:07;;;;;;;7.40;5.83;;;;;;;16.12;66.99;99654.06;1746529;82;21018;-42
2022/06/06 00:42:38;;;;;;;7.00;5.50;;;;;;;16.09;67.01;99653.66;1717333;82;21017;-42
2022/06/06 00:45:28;;;;;;;7.05;6.08;;;;;;;16.06;67.12;99651.70;1746049;82;23202;-42
2022/06/06 00:48:16;;;;;;;6.22;5.40;;;;;;;16.03;67.14;99656.56;1746069;82;20940;-42
2022/06/06 00:50:51;;;;;;;5.62;5.10;;;;;;;16.02;67.35;99661.08;1745926;82;20974;-42
2022/06/06 00:53:26;;;;;;;6.40;5.80;;;;;;;16.02;67.44;99657.73;1746008;82;21082;-42
2022/06/06 00:55:58;;;;;;;6.28;5.65;;;;;;;16.04;67.58;99655.98;1745915;82;21058;-42
2022/06/06 00:58:26;;;;;;;7.30;6.15;;;;;;;16.01;67.69;99659.50;1745943;82;21238;-42
2022/06/06 01:00:53;;;;;;;7.20;6.50;;;;;;;15.99;67.66;99662.62;1745933;82;21014;-42
2022/06/06 01:03:24;;;;;;;6.70;6.03;;;;;;;15.99;67.64;99664.57;1746050;82;21532;-42
2022/06/06 01:05:51;;;;;;;6.40;5.75;;;;;;;15.95;67.68;99662.42;1745808;82;21029;-42
2022/06/06 01:08:20;;;;;;;6.42;5.83;;;;;;;15.94;67.74;99663.00;1746225;82;21588;-42
2022/06/06 01:10:48;;;;;;;7.08;6.37;;;;;;;15.96;67.76;99661.25;1746193;82;21196;-41
2022/06/06 01:13:16;;;;;;;7.78;6.28;;;;;;;15.97;67.84;99656.77;1746287;82;20991;-42
2022/06/06 01:16:01;;;;;;;7.40;6.65;;;;;;;15.94;68.02;99657.53;1745852;82;21025;-42
2022/06/06 01:18:36;;;;;;;7.90;7.10;;;;;;;15.91;68.12;99656.95;1745269;82;20999;-41
2022/06/06 01:21:34;;;;;;;8.18;6.60;;;;;;;15.81;68.24;99653.61;1745858;82;21034;-42
2022/06/06 01:24:51;;;;;;;8.10;5.92;;;;;;;15.78;68.35;99656.34;1746043;82;21115;-42
2022/06/06 01:27:35;;;;;;;7.50;6.72;;;;;;;15.70;68.46;99654.16;1750025;81;20990;-42
2022/06/06 01:30:07;;;;;;;10.95;7.05;;;;;;;15.64;68.73;99650.22;1751785;81;21021;-42
2022/06/06 01:32:51;;;;;;;9.20;7.10;;;;;;;15.62;68.82;99656.67;1751559;81;21025;-42
2022/06/06 01:35:24;;;;;;;8.05;7.12;;;;;;;15.59;68.84;99658.80;1751670;81;20946;-42
2022/06/06 01:37:51;;;;;;;7.25;6.55;;;;;;;15.53;68.91;99648.06;1751053;81;21050;-42
2022/06/06 01:40:18;;;;;;;8.58;6.70;;;;;;;15.52;68.86;99656.05;1751094;81;21022;-42
2022/06/06 01:43:05;;;;;;;9.63;7.08;;;;;;;15.54;68.96;99656.46;1751090;81;21030;-42
2022/06/06 01:45:59;;;;;;;8.70;6.90;;;;;;;15.52;69.07;99651.37;1750326;82;21537;-42
2022/06/06 01:48:30;;;;;;;9.15;7.62;;;;;;;15.47;69.21;99655.03;1750691;82;21043;-42
2022/06/06 01:50:58;;;;;;;9.90;7.55;;;;;;;15.40;69.25;99653.62;1751251;82;21250;-42
2022/06/06 01:53:25;;;;;;;8.88;7.37;;;;;;;15.36;69.32;99658.29;1751238;82;21085;-42
2022/06/06 01:55:53;;;;;;;8.68;6.50;;;;;;;15.31;69.31;99659.44;1751186;81;21034;-42
2022/06/06 01:58:28;;;;;;;11.00;7.40;;;;;;;15.33;69.14;99661.22;1751220;81;21037;-42
2022/06/06 02:00:55;;;;;;;9.48;8.00;;;;;;;15.36;69.20;99663.75;1750805;82;21086;-42
2022/06/06 02:03:22;;;;;;;9.05;8.13;;;;;;;15.35;69.33;99664.91;1750990;82;23269;-42
2022/06/06 02:05:49;;;;;;;8.98;8.15;;;;;;;15.34;69.54;99663.38;1750725;82;21498;-42
2022/06/06 02:08:16;;;;;;;8.63;7.78;;;;;;;15.31;69.55;99661.39;1750855;81;22106;-42
2022/06/06 02:10:45;;;;;;;9.98;7.10;;;;;;;15.28;69.57;99666.27;1750685;82;21595;-42
2022/06/06 02:13:14;;;;;;;11.03;7.78;;;;;;;15.29;69.57;99670.56;1750775;81;21034;-42
2022/06/06 02:15:42;;;;;;;9.25;8.35;;;;;;;15.28;69.67;99666.27;1750829;82;21852;-42
2022/06/06 02:18:10;;;;;;;9.43;8.53;;;;;;;15.25;69.83;99669.16;1751155;81;21063;-42
2022/06/06 02:20:38;;;;;;;9.48;8.55;;;;;;;15.23;69.85;99674.24;1750872;81;21059;-42
2022/06/06 02:23:06;;;;;;;8.83;7.92;;;;;;;15.17;69.85;99675.77;1750898;81;21014;-42
2022/06/06 02:25:33;;;;;;;8.83;7.87;;;;;;;15.16;69.86;99680.44;1750788;82;21050;-42
2022/06/06 02:28:01;;;;;;;11.03;8.58;;;;;;;15.18;69.83;99682.22;1732504;82;21297;-42
2022/06/06 02:30:30;;;;;;;9.00;8.10;;;;;;;15.22;69.86;99690.42;1732131;82;21015;-42
2022/06/06 02:32:58;;;;;;;10.10;8.60;;;;;;;15.19;69.90;99687.89;1732544;82;20952;-42
2022/06/06 02:35:29;;;;;;;10.03;9.00;;;;;;;15.18;69.92;99690.41;1732205;82;21028;-42
2022/06/06 02:37:56;;;;;;;13.45;8.65;;;;;;;15.12;70.06;99693.88;1732392;82;21086;-42
2022/06/06 02:40:25;;;;;;;10.08;7.97;;;;;;;15.09;70.29;99690.55;1732270;82;21842;-42
2022/06/06 02:42:52;;;;;;;8.90;8.10;;;;;;;15.12;70.33;99686.47;1732301;82;21032;-42
2022/06/06 02:45:19;;;;;;;10.00;9.10;;;;;;;15.16;70.38;99688.63;1732200;82;21609;-42
2022/06/06 02:47:50;;;;;;;10.03;9.13;;;;;;;15.16;70.45;99690.00;1732128;82;20983;-42
2022/06/06 02:50:21;;;;;;;9.85;8.85;;;;;;;15.15;70.42;99687.06;1732267;82;21043;-42
2022/06/06 02:52:48;;;;;;;10.72;8.43;;;;;;;15.15;70.47;99688.42;1732541;82;21166;-42
2022/06/06 02:55:15;;;;;;;11.33;8.10;;;;;;;15.18;70.50;99680.85;1732175;82;21471;-42
2022/06/06 02:57:49;;;;;;;9.20;8.30;;;;;;;15.27;70.31;99676.98;1732145;82;21616;-42
2022/06/06 03:00:24;;;;;;;10.20;8.93;;;;;;;15.36;70.19;99677.41;1732482;82;21030;-42
2022/06/06 03:02:51;;;;;;;12.20;9.53;;;;;;;15.41;70.06;99683.88;1731334;82;21098;-42
2022/06/06 03:05:18;;;;;;;11.65;9.35;;;;;;;15.44;69.85;99685.25;1732406;82;21190;-42
2022/06/06 03:08:13;;;;;;;10.98;9.88;;;;;;;15.48;69.67;99682.55;1732413;82;20932;-42
2022/06/06 03:11:01;;;;;;;9.75;8.45;;;;;;;15.50;69.53;99685.67;1731919;82;21546;-42
2022/06/06 03:14:11;;;;;;;11.88;8.80;;;;;;;15.50;69.58;99685.67;1732173;82;21230;-42
2022/06/06 03:23:31;;;;;;;11.15;9.43;;;;;;;15.67;69.40;99691.05;1732131;82;20943;-43
2022/06/06 03:26:09;;;;;;;12.63;10.03;;;;;;;15.69;69.34;99692.80;1732078;82;21388;-43
2022/06/06 03:28:52;;;;;;;9.98;8.98;;;;;;;15.70;69.35;99698.47;1732433;82;20948;-42
2022/06/06 03:31:46;;;;;;;10.45;9.00;;;;;;;15.74;69.40;99691.84;1732134;82;21008;-42
2022/06/06 03:34:38;;;;;;;10.08;9.08;;;;;;;15.85;69.29;99696.77;1732225;82;21217;-42
2022/06/06 03:37:13;;;;;;;10.95;9.33;;;;;;;15.94;69.27;99698.55;1732073;82;21023;-42
2022/06/06 03:40:07;;;;;;;11.50;9.13;;;;;;;16.01;69.17;99692.33;1731519;82;20988;-42
2022/06/06 03:43:19;;;;;;;10.80;9.55;;;;;;;16.06;69.04;99694.09;1732236;82;21058;-42
2022/06/06 03:46:07;;;;;;;10.40;8.35;;;;;;;16.12;68.88;99699.19;1731961;82;21012;-42
2022/06/06 03:49:07;;;;;;;9.13;8.28;;;;;;;16.20;68.74;99696.66;1731339;82;21326;-42
2022/06/06 03:52:03;;;;;;;9.10;8.20;;;;;;;16.29;68.71;99701.16;1732432;82;21012;-42
2022/06/06 03:54:48;;;;;;;10.20;8.65;;;;;;;16.32;68.74;99704.47;1731882;82;21268;-42
2022/06/06 03:57:22;;;;;;;10.32;8.68;;;;;;;16.37;68.64;99705.45;1731951;82;21360;-42
2022/06/06 03:59:56;;;;;;;10.20;9.13;;;;;;;16.39;68.53;99705.28;1732120;82;21094;-42
2022/06/06 04:02:34;;;;;;;9.48;8.13;;;;;;;16.42;68.51;99694.91;1732238;82;21139;-42
2022/06/06 04:05:06;;;;;;;10.65;7.50;;;;;;;16.44;68.57;99694.53;1732437;82;21487;-43
2022/06/06 04:07:33;;;;;;;8.30;7.50;;;;;;;16.51;68.39;99690.41;1732537;82;21003;-42
2022/06/06 04:10:01;;;;;;;9.43;8.18;;;;;;;16.59;68.68;99687.13;1732002;82;20979;-42
2022/06/06 04:13:04;;;;;;;9.03;7.45;;;;;;;16.61;68.26;99694.34;1732138;82;21047;-42
2022/06/06 04:15:58;;;;;;;8.53;7.20;;;;;;;16.60;67.75;99694.97;1732464;82;20987;-43
2022/06/06 04:18:57;;;;;;;7.22;6.15;;;;;;;16.59;67.34;99694.77;1732440;82;21857;-42
2022/06/06 04:21:42;;;;;;;7.70;6.53;;;;;;;16.62;67.22;99685.75;1732299;82;21075;-42
2022/06/06 04:24:26;;;;;;;7.55;6.83;;;;;;;16.72;67.15;99693.18;1732329;82;21505;-42
2022/06/06 04:27:16;;;;;;;6.90;6.25;;;;;;;16.81;67.27;99691.41;1737381;81;21038;-43
2022/06/06 04:30:06;;;;;;;7.30;6.40;;;;;;;16.89;67.06;99685.52;1646806;81;21440;-43
2022/06/06 04:32:51;;;;;;;6.12;5.53;;;;;;;16.95;66.91;99692.17;1753764;81;21089;-43
2022/06/06 04:35:42;;;;;;;7.12;5.70;;;;;;;17.06;66.80;99691.38;1757759;80;20948;-42
2022/06/06 04:38:26;;;;;;;6.47;5.78;;;;;;;17.18;66.87;99689.02;1781941;80;21579;-42
2022/06/06 04:41:11;;;;;;;7.40;5.60;;;;;;;17.29;67.02;99691.11;1781844;80;21539;-43
2022/06/06 04:44:03;;;;;;;5.47;4.97;;;;;;;17.40;66.46;99691.09;1781643;80;23197;-42
2022/06/06 04:46:52;;;;;;;5.65;5.08;;;;;;;17.51;65.80;99689.09;1781967;80;21016;-43
2022/06/06 04:49:20;;;;;;;6.08;5.30;;;;;;;17.61;65.08;99695.16;1781944;80;21020;-43
2022/06/06 04:51:48;;;;;;;5.08;4.30;;;;;;;17.67;64.77;99693.54;1781898;80;20973;-43
2022/06/06 04:54:18;;;;;;;4.90;4.40;;;;;;;17.78;64.78;99695.66;1781972;80;21025;-43
2022/06/06 04:56:47;;;;;;;5.12;4.62;;;;;;;17.94;63.70;99691.07;1782121;80;21202;-43
2022/06/06 04:59:14;;;;;;;4.67;4.03;;;;;;;18.06;63.31;99704.31;1782032;80;21555;-43
2022/06/06 05:01:41;;;;;;;4.47;4.00;;;;;;;18.18;63.45;99706.60;1781964;80;20957;-42
2022/06/06 05:04:08;;;;;;;8.65;4.00;;;;;;;18.29;61.47;99709.28;1781814;80;21587;-43
2022/06/06 05:07:01;;;;;;;4.60;3.98;;;;;;;18.40;61.40;99709.97;1782024;80;21072;-43
2022/06/06 05:10:21;;;;;;;4.55;4.12;;;;;;;18.51;61.04;99712.64;1781895;80;21141;-43
2022/06/06 05:13:29;;;;;;;4.30;3.85;;;;;;;18.62;61.27;99716.91;1782225;80;21578;-43
2022/06/06 05:16:21;;;;;;;5.83;4.12;;;;;;;18.74;59.66;99717.58;1782140;80;21004;-43
2022/06/06 05:19:15;;;;;;;4.62;4.05;;;;;;;18.81;60.05;99712.82;1781896;80;21017;-43
2022/06/06 05:21:57;;;;;;;4.28;3.87;;;;;;;18.91;59.60;99713.91;1782196;80;21519;-43
2022/06/06 05:24:58;;;;;;;6.37;3.67;;;;;;;19.00;59.08;99719.71;1781004;80;21219;-43
2022/06/06 05:27:34;;;;;;;4.45;3.52;;;;;;;19.11;57.92;99724.52;1781965;80;21080;-43
2022/06/06 05:30:35;;;;;;;4.80;3.75;;;;;;;19.21;58.11;99723.63;1781582;80;20992;-43
2022/06/06 05:33:33;;;;;;;4.78;3.27;;;;;;;19.31;56.77;99726.08;1781887;80;21558;-43
2022/06/06 05:36:22;;;;;;;4.17;3.77;;;;;;;19.42;56.28;99726.72;1782434;80;21519;-43
2022/06/06 05:39:01;;;;;;;4.70;3.63;;;;;;;19.49;56.33;99720.59;1782697;80;21882;-43
2022/06/06 05:41:36;;;;;;;5.80;3.58;;;;;;;19.59;55.02;99716.75;1782220;80;21637;-43
2022/06/06 05:44:30;;;;;;;6.92;3.92;;;;;;;19.66;54.54;99718.03;1782370;80;21479;-43
2022/06/06 05:47:26;;;;;;;5.05;3.50;;;;;;;19.76;54.02;99714.37;1782250;80;21053;-43
2022/06/06 05:50:14;;;;;;;4.47;3.00;;;;;;;19.86;53.66;99720.33;1782154;80;21048;-43
2022/06/06 05:53:13;;;;;;;3.37;2.77;;;;;;;19.94;52.68;99716.31;1782309;80;21140;-43
2022/06/06 05:56:15;;;;;;;3.87;2.80;;;;;;;20.01;50.73;99718.95;1775835;80;21582;-43
2022/06/06 05:58:51;;;;;;;4.60;2.83;;;;;;;20.10;49.61;99720.59;1782480;80;21228;-43
2022/06/06 06:01:43;;;;;;;3.30;3.00;;;;;;;20.16;49.46;99724.45;1744117;80;21025;-43
2022/06/06 06:04:51;;;;;;;5.78;3.30;;;;;;;20.24;50.06;99725.11;1782226;80;21071;-43
2022/06/06 06:07:42;;;;;;;4.22;2.83;;;;;;;20.31;50.13;99729.97;1782188;80;21139;-43
2022/06/06 06:10:32;;;;;;;4.85;3.42;;;;;;;20.37;49.29;99735.78;1782148;80;21596;-43
2022/06/06 06:13:14;;;;;;;4.35;3.00;;;;;;;20.47;49.58;99738.20;1782247;80;23677;-43
2022/06/06 06:15:43;;;;;;;4.22;3.33;;;;;;;20.56;49.65;99742.58;1782252;80;21476;-43
2022/06/06 06:18:25;;;;;;;4.20;2.95;;;;;;;20.63;48.81;99736.34;1782505;80;21068;-43
2022/06/06 06:21:10;;;;;;;3.15;2.62;;;;;;;20.75;47.57;99744.63;1776967;80;21198;-43
2022/06/06 06:23:41;;;;;;;6.28;2.98;;;;;;;20.85;44.81;99743.68;1760840;80;21526;-43
2022/06/06 06:26:08;;;;;;;5.08;2.55;;;;;;;20.93;43.92;99748.46;1782080;80;21044;-43
2022/06/06 06:28:36;;;;;;;3.10;2.35;;;;;;;20.98;43.74;99744.63;1772894;80;20990;-43
2022/06/06 06:31:33;;;;;;;3.62;2.42;;;;;;;21.08;43.15;99749.19;1768815;81;21087;-43
2022/06/06 06:34:29;;;;;;;2.80;2.12;;;;;;;21.13;42.48;99751.48;1768819;80;21120;-43
2022/06/06 06:37:42;;;;;;;6.08;2.85;;;;;;;21.19;42.38;99753.95;1768720;81;21503;-43
2022/06/06 06:40:21;;;;;;;2.30;2.10;;;;;;;21.28;43.21;99751.23;1768823;81;20969;-43
2022/06/06 06:43:21;;;;;;;3.27;1.87;;;;;;;21.38;41.63;99754.39;1768486;81;21604;-43
2022/06/06 06:45:56;;;;;;;2.70;2.08;;;;;;;21.47;41.03;99761.51;1751299;81;21022;-43
2022/06/06 06:48:38;;;;;;;2.33;2.00;;;;;;;21.55;40.37;99746.37;1768986;80;21085;-43
2022/06/06 06:51:32;;;;;;;2.27;1.95;;;;;;;21.64;41.02;99754.85;1768727;81;20950;-43
2022/06/06 06:54:17;;;;;;;2.70;2.25;;;;;;;21.75;40.92;99752.67;1768737;80;21607;-43
2022/06/06 06:57:11;;;;;;;2.70;2.45;;;;;;;21.85;40.76;99747.53;1768664;81;20946;-43
2022/06/06 07:00:04;;;;;;;2.35;2.05;;;;;;;21.93;40.46;99742.06;1768520;80;21010;-43
2022/06/06 07:09:02;;;;;;;3.22;2.45;;;;;;;22.13;40.55;99756.44;1768679;80;20958;-42
2022/06/06 07:12:17;;;;;;;2.95;2.62;;;;;;;22.22;41.27;99756.03;1768781;80;20930;-43
2022/06/06 07:15:12;;;;;;;4.33;2.50;;;;;;;22.34;41.58;99754.59;1768674;81;21080;-43
2022/06/06 07:17:47;;;;;;;5.20;2.77;;;;;;;22.42;42.39;99754.59;1768878;81;21139;-43
2022/06/06 07:20:15;;;;;;;3.02;2.30;;;;;;;22.53;41.67;99750.39;1749288;81;20970;-42
2022/06/06 07:23:05;;;;;;;2.37;2.05;;;;;;;22.64;40.13;99747.98;1768769;81;21009;-43
2022/06/06 07:25:37;;;;;;;2.50;1.80;;;;;;;22.49;39.14;99719.91;1769198;81;21025;-42
2022/06/06 07:28:06;;;;;;;4.35;1.80;;;;;;;22.74;37.74;99751.91;1768477;81;21021;-43
2022/06/06 07:30:39;;;;;;;2.75;1.90;;;;;;;22.72;38.75;99760.44;1767102;81;21226;-42
2022/06/06 07:33:32;;;;;;;2.12;1.92;;;;;;;22.64;38.45;99763.96;1766950;81;20918;-43
2022/06/06 07:36:23;;;;;;;3.08;1.85;;;;;;;22.54;39.14;99766.37;1767031;81;21492;-43
2022/06/06 07:39:23;;;;;;;2.22;1.60;;;;;;;22.50;39.44;99758.77;1766996;81;20994;-43
2022/06/06 07:42:10;;;;;;;2.98;1.90;;;;;;;22.58;39.83;99755.22;1735402;82;26790;-43
2022/06/06 07:44:48;;;;;;;2.40;1.92;;;;;;;22.72;39.40;99754.31;1763390;81;21130;-42
2022/06/06 07:47:44;;;;;;;3.45;1.87;;;;;;;22.88;38.42;99755.70;1766836;81;21069;-43
2022/06/06 07:50:24;;;;;;;2.50;1.50;;;;;;;23.06;38.45;99755.23;1766668;81;21536;-43
2022/06/06 07:52:57;;;;;;;2.55;2.27;;;;;;;23.23;37.62;99753.23;1766822;80;21098;-43
2022/06/06 07:55:28;;;;;;;4.12;1.80;;;;;;;23.40;38.37;99760.27;1766643;80;21056;-43
2022/06/06 07:58:16;;;;;;;5.00;2.08;;;;;;;23.56;37.82;99763.03;1766800;81;21297;-43
2022/06/06 08:00:46;;;;;;;2.42;1.75;;;;;;;23.74;36.31;99763.30;1766540;81;21026;-44
2022/06/06 08:03:34;;;;;;;2.95;1.70;;;;;;;23.88;36.05;99768.27;1766947;80;21002;-43
2022/06/06 08:06:31;;;;;;;2.10;1.70;;;;;;;23.96;35.08;99767.64;1766834;81;21516;-43
2022/06/06 08:09:09;;;;;;;1.85;1.40;;;;;;;24.04;34.33;99772.34;1766896;81;21583;-43
2022/06/06 08:12:05;;;;;;;;;;;;;;;24.12;32.65;99765.37;1769378;81;20930;-43
2022/06/06 08:15:07;;;;;;;2.60;1.52;;;;;;;24.18;32.66;99758.10;1766565;81;20121;-43
2022/06/06 08:18:03;;;;;;;4.37;2.10;;;;;;;24.12;33.51;99761.22;1761716;81;21060;-43
2022/06/06 08:21:08;;;;;;;3.25;1.80;;;;;;;24.20;34.71;99759.84;1751852;81;21010;-43
2022/06/06 08:23:35;;;;;;;4.37;1.75;;;;;;;24.31;34.82;99751.17;1766793;81;21002;-43
2022/06/06 08:26:03;;;;;;;2.75;1.50;;;;;;;24.40;35.00;99751.31;1766729;81;23104;-43
2022/06/06 08:28:31;;;;;;;1.60;1.50;;;;;;;24.50;33.64;99738.48;1767280;81;21026;-43
2022/06/06 08:30:59;;;;;;;3.95;1.60;;;;;;;24.59;33.60;99737.19;1768543;81;22167;-44
2022/06/06 08:33:26;;;;;;;1.77;1.60;;;;;;;24.75;34.05;99745.22;1768757;81;21049;-43
2022/06/06 08:36:09;;;;;;;4.47;1.30;;;;;;;24.86;33.49;99740.10;1768592;81;21061;-43
2022/06/06 08:39:15;;;;;;;3.83;1.72;;;;;;;25.02;33.79;99742.77;1737092;80;21535;-43
2022/06/06 08:42:09;;;;;;;2.02;1.70;;;;;;;25.21;33.46;99756.19;1768175;80;20990;-43
2022/06/06 08:45:09;;;;;;;2.27;1.50;;;;;;;25.33;33.06;99751.19;1768634;80;21028;-43
2022/06/06 08:48:02;;;;;;;2.87;1.80;;;;;;;25.41;32.08;99746.35;1759767;81;20984;-44
2022/06/06 08:51:15;;;;;;;2.83;1.87;;;;;;;25.50;33.04;99745.03;1768587;80;21069;-43
2022/06/06 08:54:10;;;;;;;1.57;1.42;;;;;;;25.63;33.18;99748.38;1768181;80;21142;-43
2022/06/06 08:57:19;;;;;;;2.33;1.50;;;;;;;25.73;31.91;99751.38;1768723;81;20977;-43
2022/06/06 09:00:01;;;;;;;2.08;1.45;;;;;;;25.84;30.78;99746.20;1768744;81;21013;-43
2022/06/06 09:02:54;;;;;;;1.62;1.25;;;;;;;25.91;30.18;99738.98;1768821;81;20998;-43
2022/06/06 09:05:58;;;;;;;1.95;1.00;;;;;;;26.02;31.09;99743.53;1768776;81;21480;-43
2022/06/06 09:09:09;;;;;;;2.08;1.40;;;;;;;26.14;29.23;99729.40;1768896;81;21152;-43
2022/06/06 09:12:01;;;;;;;3.27;1.50;;;;;;;26.20;30.65;99721.99;1768747;81;21032;-43
2022/06/06 09:15:00;;;;;;;1.20;1.10;;;;;;;26.23;30.89;99714.18;1769070;80;21017;-43
2022/06/06 09:18:09;;;;;;;2.22;1.90;;;;;;;26.29;28.74;99722.83;1744202;81;21757;-43
2022/06/06 09:21:21;;;;;;;2.05;1.30;;;;;;;26.38;30.59;99725.64;1769174;81;21022;-43
2022/06/06 09:24:12;;;;;;;3.90;1.82;;;;;;;26.51;29.47;99719.21;1753573;81;21328;-43
2022/06/06 09:26:52;;;;;;;2.42;1.80;;;;;;;26.61;30.01;99722.95;1768742;81;21552;-43
2022/06/06 09:29:45;;;;;;;4.87;1.30;;;;;;;26.65;29.56;99724.97;1753218;80;21041;-43
2022/06/06 09:33:05;;;;;;;2.55;1.50;;;;;;;26.69;28.78;99720.64;1739911;82;21033;-43
2022/06/06 09:36:23;;;;;;;2.80;1.42;;;;;;;26.75;29.54;99720.20;1685861;85;21108;-43
2022/06/06 09:39:19;;;;;;;1.70;1.50;;;;;;;26.81;28.71;99721.92;1740556;82;23155;-43
2022/06/06 09:42:09;;;;;;;2.70;1.50;;;;;;;26.86;29.40;99721.95;1740507;82;20970;-43
2022/06/06 09:45:03;;;;;;;2.02;1.42;;;;;;;26.92;28.47;99722.09;1740652;82;21017;-43
2022/06/06 09:48:01;;;;;;;2.83;1.77;;;;;;;26.93;27.34;99729.21;1733518;82;21029;-43
2022/06/06 09:51:03;;;;;;;2.15;1.60;;;;;;;26.96;27.66;99724.13;1740688;82;20982;-43
2022/06/06 09:53:42;;;;;;;1.98;1.57;;;;;;;27.11;27.79;99714.69;1711022;82;21980;-44
2022/06/06 10:00:12;;;;;;;2.67;1.70;;;;;;;27.45;30.33;99721.20;1740574;82;21076;-43
2022/06/06 10:03:16;;;;;;;2.15;1.50;;;;;;;26.45;30.33;99563.34;1740439;82;21171;-43
2022/06/06 10:06:26;;;;;;;3.30;1.75;;;;;;;27.62;28.72;99712.69;1737862;82;21045;-44
2022/06/06 10:09:25;;;;;;;1.95;1.55;;;;;;;27.69;28.29;99712.37;1740591;82;21130;-43
2022/06/06 10:12:18;;;;;;;1.92;1.70;;;;;;;27.70;27.97;99711.12;1740660;82;21287;-43
2022/06/06 10:15:20;;;;;;;3.52;1.98;;;;;;;27.55;28.51;99706.81;1740660;82;20957;-43
2022/06/06 10:18:16;;;;;;;9.30;1.90;;;;;;;27.32;29.71;99713.61;1740688;82;20990;-43
2022/06/06 10:21:08;;;;;;;3.10;1.70;;;;;;;26.98;29.62;99707.11;1740506;82;21528;-43
2022/06/06 10:24:21;;;;;;;3.58;2.08;;;;;;;26.79;30.07;99705.52;1740638;82;21944;-43
2022/06/06 10:27:14;;;;;;;2.92;1.62;;;;;;;26.85;30.75;99698.73;1740324;82;21560;-43
2022/06/06 10:30:12;;;;;;;3.33;1.87;;;;;;;27.02;30.68;99703.56;1756053;80;21013;-44
2022/06/06 10:33:18;;;;;;;2.25;1.70;;;;;;;27.19;30.31;99704.04;1768586;81;21002;-43
2022/06/06 10:36:24;;;;;;;2.83;1.85;;;;;;;27.40;29.06;99703.08;1769033;81;21607;-44
2022/06/06 10:39:28;;;;;;;7.08;1.80;;;;;;;27.44;28.67;99695.37;1768890;81;21911;-43
2022/06/06 10:42:35;;;;;;;2.60;1.70;;;;;;;27.39;28.63;99681.30;1768945;81;22066;-43
2022/06/06 10:45:25;;;;;;;2.98;2.00;;;;;;;27.16;29.25;99691.81;1768997;81;21041;-43
2022/06/06 10:48:37;;;;;;;2.45;1.72;;;;;;;27.06;30.17;99684.69;1768244;80;21111;-43
2022/06/06 10:51:48;;;;;;;4.50;1.50;;;;;;;27.22;30.34;99688.56;1768930;81;21006;-43
2022/06/06 10:54:49;;;;;;;1.50;1.30;;;;;;;27.52;29.47;99686.09;1732290;80;21579;-43
2022/06/06 10:58:00;;;;;;;2.10;1.45;;;;;;;27.68;27.65;99682.20;1768266;80;21484;-43
2022/06/06 11:00:42;;;;;;;3.15;1.90;;;;;;;27.59;27.79;99683.00;1768613;80;20982;-44
2022/06/06 11:03:37;;;;;;;5.67;1.90;;;;;;;27.41;28.76;99686.53;1768668;81;21017;-43
2022/06/06 11:06:40;;;;;;;2.12;1.70;;;;;;;27.47;28.94;99683.28;1768656;81;21042;-43
2022/06/06 11:09:50;;;;;;;3.65;1.70;;;;;;;27.71;28.46;99673.67;1768879;81;22042;-44
2022/06/06 11:12:55;;;;;;;3.17;1.60;;;;;;;28.12;28.42;99673.56;1768737;81;21527;-44
2022/06/06 11:15:23;;;;;;;1.62;1.52;;;;;;;28.58;26.42;99664.31;1768884;81;21002;-44
2022/06/06 11:18:14;;;;;;;2.65;1.60;;;;;;;29.00;26.03;99655.06;1768607;80;21029;-44
2022/06/06 11:20:56;;;;;;;1.90;1.70;;;;;;;29.39;26.54;99664.20;1768575;81;21013;-44
2022/06/06 11:23:34;;;;;;;2.87;1.70;;;;;;;29.35;25.74;99662.35;1768937;80;21472;-43
2022/06/06 11:26:16;;;;;;;1.98;1.80;;;;;;;29.13;26.53;99661.15;1765437;81;21053;-43
2022/06/06 11:29:01;;;;;;;2.52;1.55;;;;;;;28.73;27.31;99672.16;1768474;81;21033;-44
2022/06/06 11:32:01;;;;;;;1.50;1.40;;;;;;;28.41;28.47;99668.16;1768607;81;20922;-44
2022/06/06 11:34:57;;;;;;;1.92;1.32;;;;;;;28.20;27.39;99675.38;1744638;80;24971;-44
2022/06/06 11:38:07;;;;;;;2.10;1.52;;;;;;;28.03;26.66;99665.96;1768657;81;21293;-44
2022/06/06 11:40:57;;;;;;;;;;;;;;;28.22;26.89;99655.55;1771409;80;20961;-44
2022/06/06 11:43:39;;;;;;;1.82;1.60;;;;;;;28.70;26.55;99646.58;1768927;80;20212;-44
2022/06/06 11:46:43;;;;;;;2.30;1.37;;;;;;;29.18;26.06;99649.31;1768573;81;21014;-44
2022/06/06 11:49:40;;;;;;;2.22;1.60;;;;;;;29.62;26.38;99650.77;1768822;81;21045;-44
2022/06/06 11:52:46;;;;;;;2.65;1.47;;;;;;;30.14;24.93;99649.06;1768874;81;21246;-44
2022/06/06 11:55:42;;;;;;;2.98;1.30;;;;;;;30.52;23.76;99652.30;1768875;81;21005;-44
2022/06/06 11:58:26;;;;;;;2.50;1.35;;;;;;;30.67;23.94;99653.00;1746491;81;21052;-44
2022/06/06 12:01:08;;;;;;;1.98;1.45;;;;;;;30.51;23.88;99662.72;1768517;81;21603;-44
2022/06/06 12:03:58;;;;;;;1.92;1.50;;;;;;;30.20;23.28;99656.92;1768720;81;21084;-44
2022/06/06 12:07:13;;;;;;;1.70;1.60;;;;;;;29.83;23.89;99652.98;1768639;81;21147;-44
2022/06/06 12:10:01;;;;;;;1.40;1.22;;;;;;;29.71;23.43;99649.27;1768802;80;21464;-44
2022/06/06 12:12:52;;;;;;;5.58;1.75;;;;;;;29.67;23.67;99649.47;1768781;80;21036;-44
2022/06/06 12:15:43;;;;;;;4.72;1.50;;;;;;;29.99;24.74;99652.52;1768804;81;21488;-44
2022/06/06 12:18:52;;;;;;;2.75;1.40;;;;;;;30.17;24.38;99650.88;1768612;81;21088;-44
2022/06/06 12:21:48;;;;;;;2.27;1.65;;;;;;;30.13;23.39;99651.72;1768808;81;22045;-44
2022/06/06 12:24:46;;;;;;;2.50;1.90;;;;;;;29.80;23.63;99658.31;1768448;81;21574;-44
2022/06/06 12:27:34;;;;;;;2.45;1.62;;;;;;;29.45;24.78;99653.88;1767905;80;21532;-44
2022/06/06 12:30:15;;;;;;;2.80;1.85;;;;;;;29.03;26.03;99654.88;1767933;80;21041;-44
2022/06/06 12:33:03;;;;;;;1.77;1.60;;;;;;;28.88;26.78;99649.25;1766626;81;20993;-44
2022/06/06 12:36:01;;;;;;;2.15;1.90;;;;;;;28.98;27.13;99641.58;1766845;80;21222;-44
2022/06/06 12:39:03;;;;;;;4.40;1.90;;;;;;;29.40;26.77;99641.36;1766923;81;21207;-44
2022/06/06 12:45:21;;;;;;;2.90;1.45;;;;;;;30.56;23.17;99625.64;1835907;78;22612;-43
2022/06/06 12:48:33;;;;;;;1.80;1.50;;;;;;;30.69;22.83;99623.13;1806100;79;21544;-43
2022/06/06 12:51:26;;;;;;;2.30;1.35;;;;;;;30.91;22.78;99619.19;1806004;79;20931;-43
2022/06/06 12:54:19;;;;;;;2.95;1.60;;;;;;;31.39;23.11;99619.44;1805841;79;21439;-44
2022/06/06 12:56:54;;;;;;;1.50;1.40;;;;;;;31.88;22.66;99614.13;1806055;79;20947;-44
2022/06/06 12:59:42;;;;;;;2.33;1.50;;;;;;;32.12;22.69;99620.19;1806041;79;20972;-43
2022/06/06 13:02:52;;;;;;;3.12;1.40;;;;;;;32.29;22.50;99621.03;1805990;79;20962;-43
2022/06/06 13:05:28;;;;;;;1.57;1.32;;;;;;;32.33;21.91;99620.19;1806012;79;21891;-43
2022/06/06 13:08:43;;;;;;;2.30;1.67;;;;;;;32.50;21.26;99623.06;1805725;79;20939;-43
2022/06/06 13:11:43;;;;;;;2.37;1.70;;;;;;;32.52;21.34;99614.15;1805916;79;21493;-43
2022/06/06 13:14:21;;;;;;;1.95;1.70;;;;;;;32.73;21.47;99612.71;1805476;79;21405;-44
2022/06/06 13:17:12;;;;;;;3.50;1.62;;;;;;;32.56;21.80;99616.08;1805623;79;21018;-43
2022/06/06 13:20:00;;;;;;;3.15;1.90;;;;;;;32.60;21.91;99607.54;1805585;79;21137;-43
2022/06/06 13:23:12;;;;;;;2.12;1.60;;;;;;;32.88;21.56;99610.46;1803852;79;20990;-43
2022/06/06 13:26:24;;;;;;;3.80;1.80;;;;;;;33.07;21.23;99607.31;1805788;79;21070;-43